Time;durP1;ratioP1;P1;durP2;ratioP2;P2;SDS_P1;SDS_P2;PMS_P1;PMS_P2;Temp;Humidity;BMP_temperature;BMP_pressure;BME280_temperature;BME280_humidity;BME280_pressure;Samples;Min_cycle;Max_cycle;Signal;HPM_P1;HPM_P2
2023/09/13 00:01:43;;;;;;;25.77;15.57;;;17.60;99.90;;;17.94;100.00;99374.78;5034444;28;20044;-78
2023/09/13 00:04:09;;;;;;;32.13;16.75;;;17.60;99.90;;;17.93;100.00;99364.06;5034701;28;20034;-81
2023/09/13 00:06:35;;;;;;;23.27;13.65;;;17.50;99.90;;;17.89;100.00;99355.56;5034421;28;20056;-81
2023/09/13 00:09:01;;;;;;;20.63;11.10;;;17.50;99.90;;;17.81;100.00;99362.53;5039162;28;20216;-78
2023/09/13 00:11:26;;;;;;;18.98;11.00;;;17.50;99.90;;;17.76;100.00;99361.78;5033787;28;20087;-80
2023/09/13 00:13:52;;;;;;;16.90;10.70;;;17.40;99.90;;;17.71;100.00;99370.97;5034520;28;20425;-80
2023/09/13 00:16:18;;;;;;;14.48;10.27;;;17.40;99.90;;;17.67;100.00;99370.72;5034281;28;20025;-80
2023/09/13 00:18:44;;;;;;;13.77;9.10;;;17.30;99.90;;;17.61;100.00;99365.56;5021324;28;20030;-79
2023/09/13 00:21:11;;;;;;;14.55;9.65;;;17.30;99.90;;;17.57;100.00;99372.78;5034222;28;20072;-79
2023/09/13 00:23:37;;;;;;;13.98;8.85;;;17.20;99.90;;;17.58;100.00;99369.75;5033865;28;20038;-78
2023/09/13 00:26:03;;;;;;;15.70;9.15;;;17.20;99.90;;;17.57;100.00;99381.06;5034149;28;20049;-77
2023/09/13 00:28:29;;;;;;;13.93;9.10;;;17.20;99.90;;;17.56;100.00;99383.00;5039393;28;20087;-78
2023/09/13 00:30:57;;;;;;;13.18;8.13;;;17.20;99.90;;;17.56;100.00;99399.56;5034276;28;20661;-77
2023/09/13 00:33:23;;;;;;;12.85;8.35;;;17.10;99.90;;;17.57;100.00;99405.88;5033212;28;20819;-77
2023/09/13 00:35:54;;;;;;;15.38;8.95;;;17.10;99.90;;;17.50;100.00;99420.00;5016124;28;20086;-78
2023/09/13 00:38:20;;;;;;;12.07;8.45;;;17.10;99.90;;;17.50;100.00;99425.53;5033881;28;20037;-78
2023/09/13 00:40:46;;;;;;;13.65;8.85;;;17.10;99.90;;;17.53;100.00;99441.50;5033893;28;20033;-77
2023/09/13 00:43:11;;;;;;;10.75;8.50;;;17.10;99.90;;;17.39;100.00;99447.69;5021028;28;20037;-78
2023/09/13 00:45:38;;;;;;;16.20;8.40;;;17.10;99.90;;;17.48;100.00;99453.41;5028726;28;20251;-78
2023/09/13 00:48:05;;;;;;;11.13;8.30;;;17.10;99.90;;;17.51;100.00;99465.78;5033714;28;20170;-77
2023/09/13 00:50:31;;;;;;;15.80;9.75;;;17.10;99.90;;;17.45;100.00;99462.25;5025471;28;20037;-78
2023/09/13 00:52:58;;;;;;;13.65;9.30;;;17.10;99.90;;;17.45;100.00;99461.41;5000218;28;20492;-78
2023/09/13 00:55:26;;;;;;;15.47;9.50;;;17.10;99.90;;;17.37;100.00;99452.69;5033613;28;20131;-78
2023/09/13 00:57:54;;;;;;;;;;;17.10;99.90;;;17.48;100.00;99434.09;5043949;28;20037;-78
2023/09/13 01:00:21;;;;;;;14.10;9.80;;;17.10;99.90;;;17.49;100.00;99429.41;5045239;28;20663;-79
2023/09/13 01:02:48;;;;;;;13.98;8.68;;;17.10;99.90;;;17.34;100.00;99430.38;5032870;28;20516;-78
2023/09/13 01:05:15;;;;;;;13.43;9.70;;;17.20;99.90;;;17.44;100.00;99413.75;5015618;28;20037;-79
2023/09/13 01:07:44;;;;;;;18.65;9.68;;;17.20;99.90;;;17.53;100.00;99419.44;5012995;28;20489;-79
2023/09/13 01:10:11;;;;;;;16.90;9.90;;;17.20;99.90;;;17.50;100.00;99428.28;4986979;28;20512;-79
2023/09/13 01:12:37;;;;;;;15.63;9.80;;;17.10;99.90;;;17.52;100.00;99431.59;5000674;28;20048;-78
2023/09/13 01:15:06;;;;;;;14.23;9.30;;;17.10;99.90;;;17.53;100.00;99436.00;5005917;28;20034;-78
2023/09/13 01:18:17;;;;;;;15.93;9.77;;;17.10;99.90;;;17.54;100.00;99427.41;5016200;28;20041;-79
2023/09/13 01:21:09;;;;;;;14.18;9.43;;;17.10;99.90;;;17.55;100.00;99414.47;5014657;28;20041;-78
2023/09/13 01:24:25;;;;;;;14.32;9.73;;;17.10;99.90;;;17.53;100.00;99408.41;5014379;28;20046;-78
2023/09/13 01:27:26;;;;;;;14.73;9.35;;;17.10;99.90;;;17.50;100.00;99395.19;5020619;28;20038;-79
2023/09/13 01:29:52;;;;;;;11.90;8.73;;;17.10;99.90;;;17.40;100.00;99380.44;5015473;28;20095;-78
2023/09/13 01:32:19;;;;;;;12.75;9.07;;;17.10;99.90;;;17.38;100.00;99379.91;5020631;28;20041;-79
2023/09/13 01:34:45;;;;;;;16.38;9.65;;;17.10;99.90;;;17.39;100.00;99378.78;4980538;28;20038;-79
2023/09/13 01:37:11;;;;;;;15.30;10.25;;;17.10;99.90;;;17.39;100.00;99355.94;5016091;28;20592;-79
2023/09/13 01:39:37;;;;;;;18.15;10.90;;;17.20;99.90;;;17.39;100.00;99345.72;5004016;28;20069;-79
2023/09/13 01:42:10;;;;;;;15.02;11.32;;;17.20;99.90;;;17.46;100.00;99342.59;5004076;28;20536;-80
2023/09/13 01:44:40;;;;;;;15.77;10.93;;;17.10;99.90;;;17.48;100.00;99350.56;5015699;28;20324;-80
2023/09/13 01:47:08;;;;;;;15.02;9.55;;;17.10;99.90;;;17.46;100.00;99363.81;4986758;28;20564;-80
2023/09/13 01:49:36;;;;;;;;;;;17.10;99.90;;;17.46;100.00;99361.91;4992916;28;20041;-79
2023/09/13 01:52:05;;;;;;;15.95;9.57;;;17.10;99.90;;;17.48;100.00;99359.66;5001354;28;19953;-79
2023/09/13 01:54:35;;;;;;;13.77;9.90;;;17.10;99.90;;;17.49;100.00;99363.22;5012643;28;20038;-79
2023/09/13 01:57:02;;;;;;;14.48;9.13;;;17.10;99.90;;;17.45;100.00;99373.22;5012840;28;20049;-79
2023/09/13 01:59:33;;;;;;;14.77;9.27;;;17.00;99.90;;;17.44;100.00;99371.56;5012961;28;20386;-79
2023/09/13 02:01:59;;;;;;;14.30;9.65;;;17.00;99.90;;;17.42;100.00;99376.56;5011302;28;20397;-78
2023/09/13 02:04:29;;;;;;;13.00;9.00;;;17.10;99.90;;;17.40;100.00;99383.19;4994966;28;20115;-78
2023/09/13 02:06:55;;;;;;;12.52;8.93;;;17.10;99.90;;;17.42;100.00;99387.59;5004370;28;20149;-78
2023/09/13 02:09:21;;;;;;;10.35;8.35;;;17.10;99.90;;;17.40;100.00;99388.69;5033412;28;20037;-79
2023/09/13 02:11:48;;;;;;;13.85;9.20;;;17.10;99.90;;;17.36;100.00;99400.59;5034114;28;20120;-78
2023/09/13 02:14:14;;;;;;;15.50;10.77;;;17.00;99.90;;;17.30;100.00;99380.56;5033407;28;20442;-78
2023/09/13 02:16:39;;;;;;;15.27;10.25;;;17.00;99.90;;;17.32;100.00;99352.69;5024794;28;20037;-78
2023/09/13 02:19:05;;;;;;;13.77;10.85;;;17.10;99.90;;;17.25;100.00;99325.50;5031851;28;20063;-80
2023/09/13 02:21:31;;;;;;;16.73;10.50;;;17.10;99.90;;;17.25;100.00;99328.25;5016669;28;20029;-79
2023/09/13 02:23:57;;;;;;;15.88;10.18;;;17.10;99.90;;;17.28;100.00;99313.06;5015660;28;20068;-79
2023/09/13 02:26:24;;;;;;;15.20;9.55;;;17.10;99.90;;;17.30;100.00;99321.84;5019754;28;20124;-78
2023/09/13 02:28:52;;;;;;;15.77;9.80;;;17.00;99.90;;;17.28;100.00;99324.91;5037785;28;20166;-79
2023/09/13 02:31:28;;;;;;;14.45;9.90;;;17.00;99.90;;;17.28;100.00;99338.69;5017730;28;20052;-79
2023/09/13 02:33:54;;;;;;;15.18;10.32;;;17.00;99.90;;;17.18;100.00;99360.84;5044334;28;20025;-79
2023/09/13 02:36:22;;;;;;;17.77;11.27;;;17.00;99.90;;;17.19;100.00;99354.22;5032142;28;20021;-80
2023/09/13 02:38:49;;;;;;;17.45;10.95;;;17.00;99.90;;;17.20;100.00;99345.66;5030562;28;20078;-79
2023/09/13 02:41:16;;;;;;;17.00;12.23;;;16.90;99.90;;;17.22;100.00;99356.38;5033272;28;20053;-79
2023/09/13 02:43:41;;;;;;;18.10;11.73;;;16.90;99.90;;;17.10;100.00;99352.09;5018998;28;20037;-79
2023/09/13 02:46:07;;;;;;;15.35;10.40;;;16.90;99.90;;;17.16;100.00;99343.78;5033471;28;20034;-80
2023/09/13 02:48:33;;;;;;;15.82;10.90;;;16.90;99.90;;;17.15;100.00;99326.44;5019025;28;20361;-81
2023/09/13 02:51:00;;;;;;;17.52;11.48;;;16.90;99.90;;;17.16;100.00;99333.59;5028005;28;20033;-81
2023/09/13 02:53:26;;;;;;;14.77;10.02;;;17.00;99.90;;;17.17;100.00;99329.72;5014882;28;20394;-80
2023/09/13 02:55:52;;;;;;;17.23;11.52;;;17.00;99.90;;;17.18;100.00;99320.34;5035631;28;20095;-81
2023/09/13 02:58:18;;;;;;;21.85;13.23;;;17.00;99.90;;;17.22;100.00;99326.06;5009928;28;20116;-78
2023/09/13 03:00:44;;;;;;;19.00;12.95;;;16.90;99.90;;;17.20;100.00;99315.34;5020135;28;20033;-78
2023/09/13 03:03:10;;;;;;;19.90;14.02;;;16.90;99.90;;;17.21;100.00;99318.91;5010336;28;20048;-80
2023/09/13 03:05:37;;;;;;;22.83;13.75;;;16.90;99.90;;;17.13;100.00;99312.13;5014759;28;20157;-80
2023/09/13 03:08:04;;;;;;;23.70;14.48;;;16.90;99.90;;;17.13;100.00;99297.53;5032020;28;20076;-80
2023/09/13 03:10:30;;;;;;;26.33;14.60;;;16.90;99.90;;;17.14;100.00;99307.44;5024939;28;20393;-80
2023/09/13 03:12:56;;;;;;;27.40;15.57;;;16.90;99.90;;;17.08;100.00;99288.22;5015353;28;20445;-80
2023/09/13 03:15:22;;;;;;;26.05;15.52;;;16.90;99.90;;;17.10;100.00;99287.91;5029738;28;20036;-80
2023/09/13 03:17:48;;;;;;;25.25;15.93;;;16.90;99.90;;;17.13;100.00;99267.22;5027278;28;20037;-80
2023/09/13 03:20:13;;;;;;;25.17;15.38;;;16.90;99.90;;;17.22;100.00;99282.81;5018863;28;20091;-80
2023/09/13 03:22:39;;;;;;;30.38;16.45;;;16.80;99.90;;;17.21;100.00;99308.72;4997497;28;20151;-80
2023/09/13 03:25:05;;;;;;;37.42;17.60;;;16.80;99.90;;;17.23;100.00;99333.22;5030712;28;20033;-80
2023/09/13 03:27:32;;;;;;;31.90;16.88;;;16.80;99.90;;;17.15;100.00;99342.13;5001937;28;20489;-80
2023/09/13 03:29:59;;;;;;;33.45;16.92;;;16.80;99.90;;;17.08;100.00;99351.56;5013810;28;20037;-80
2023/09/13 03:32:25;;;;;;;35.70;17.88;;;16.70;99.90;;;17.10;100.00;99349.34;5025699;28;20461;-80
2023/09/13 03:34:51;;;;;;;33.10;17.48;;;16.70;99.90;;;17.07;100.00;99358.19;5034023;28;20037;-80
2023/09/13 03:37:18;;;;;;;35.63;18.60;;;16.70;99.90;;;17.03;100.00;99351.63;5027010;28;20037;-79
2023/09/13 03:39:44;;;;;;;33.83;18.55;;;16.70;99.90;;;17.00;100.00;99354.97;5024503;28;20044;-81
2023/09/13 03:42:10;;;;;;;36.92;19.88;;;16.80;99.90;;;16.91;100.00;99327.22;5014298;28;20033;-81
2023/09/13 03:44:37;;;;;;;41.97;20.90;;;16.80;99.90;;;17.04;100.00;99297.34;5014320;28;20041;-80
2023/09/13 03:47:03;;;;;;;39.63;19.88;;;16.80;99.90;;;17.02;100.00;99285.81;5014393;28;20496;-81
2023/09/13 03:49:29;;;;;;;40.17;20.95;;;16.80;99.90;;;17.09;100.00;99292.59;5032143;28;20052;-81
2023/09/13 03:51:56;;;;;;;44.95;21.15;;;16.80;99.90;;;17.09;100.00;99298.13;5013935;28;20103;-81
2023/09/13 03:54:23;;;;;;;47.63;20.38;;;16.80;99.90;;;17.14;100.00;99304.69;5031623;28;20469;-81
2023/09/13 03:56:49;;;;;;;48.30;21.27;;;16.70;99.90;;;17.15;100.00;99331.13;5025832;28;20052;-82
2023/09/13 03:59:14;;;;;;;49.33;22.27;;;16.70;99.90;;;17.10;100.00;99349.34;5042607;28;20048;-81
2023/09/13 04:01:41;;;;;;;46.42;21.45;;;16.70;99.90;;;17.06;100.00;99355.72;5032164;28;20034;-82
2023/09/13 04:04:07;;;;;;;44.10;20.15;;;16.60;99.90;;;17.06;100.00;99386.03;5032726;28;20132;-81
2023/09/13 04:06:34;;;;;;;52.72;22.10;;;16.60;99.90;;;17.04;100.00;99391.00;5017486;28;20505;-81
2023/09/13 04:09:01;;;;;;;49.78;21.38;;;16.60;99.90;;;17.06;100.00;99403.41;5032669;28;20034;-82
2023/09/13 04:11:28;;;;;;;55.47;24.65;;;16.60;99.90;;;17.03;100.00;99406.75;5016111;28;20037;-80
2023/09/13 04:13:56;;;;;;;59.92;25.13;;;16.60;99.90;;;17.01;100.00;99397.94;5028733;28;20542;-82
2023/09/13 04:16:25;;;;;;;;;;;16.70;99.90;;;17.09;100.00;99400.06;5023712;28;20412;-82
2023/09/13 04:18:51;;;;;;;82.53;28.40;;;16.70;99.90;;;17.12;100.00;99387.66;5022395;28;20011;-81
2023/09/13 04:21:17;;;;;;;82.03;29.17;;;16.80;99.90;;;17.13;100.00;99363.66;5011492;28;20041;-82
2023/09/13 04:23:43;;;;;;;96.45;30.00;;;16.90;99.90;;;17.22;100.00;99353.63;5023118;28;20034;-82
2023/09/13 04:26:20;;;;;;;92.55;30.35;;;16.90;99.90;;;17.27;100.00;99345.31;5021242;28;20038;-82
2023/09/13 04:28:48;;;;;;;81.18;29.17;;;17.00;99.90;;;17.34;100.00;99336.69;5037132;28;20116;-83
2023/09/13 04:31:15;;;;;;;89.72;30.80;;;17.00;99.90;;;17.36;100.00;99339.94;5032385;28;20037;-81
2023/09/13 04:33:54;;;;;;;83.18;31.25;;;17.00;99.90;;;17.36;100.00;99349.06;5039545;28;20045;-81
2023/09/13 04:36:31;;;;;;;99.25;32.75;;;17.00;99.90;;;17.38;100.00;99346.81;5015684;28;20038;-83
2023/09/13 04:38:57;;;;;;;83.55;30.13;;;17.00;99.90;;;17.41;100.00;99339.91;5037101;28;20111;-82
2023/09/13 04:41:27;;;;;;;96.40;33.30;;;17.00;99.90;;;17.46;100.00;99355.56;5038143;28;20079;-83
2023/09/13 04:43:54;;;;;;;100.45;32.00;;;17.00;99.90;;;17.43;100.00;99368.00;5024984;28;20029;-81
2023/09/13 04:46:20;;;;;;;103.68;32.20;;;17.00;99.90;;;17.44;100.00;99383.44;5025929;28;20081;-79
2023/09/13 04:48:45;;;;;;;96.15;31.48;;;17.00;99.90;;;17.47;100.00;99385.59;5023391;28;20049;-81
2023/09/13 04:51:11;;;;;;;98.65;30.08;;;17.00;99.90;;;17.45;100.00;99381.47;5036791;28;20062;-81
2023/09/13 04:53:38;;;;;;;87.75;29.65;;;17.00;99.90;;;17.48;100.00;99395.50;5040127;28;20069;-80
2023/09/13 04:56:10;;;;;;;95.22;31.95;;;17.00;99.90;;;17.49;100.00;99388.88;5046933;28;20778;-82
2023/09/13 04:58:49;;;;;;;95.93;32.38;;;17.00;99.90;;;17.52;100.00;99398.50;5043360;28;20033;-79
2023/09/13 05:01:16;;;;;;;88.85;30.33;;;17.10;99.90;;;17.48;100.00;99386.41;5039074;28;20049;-79
2023/09/13 05:03:42;;;;;;;82.20;29.80;;;17.10;99.90;;;17.50;100.00;99386.94;5024596;28;20044;-79
2023/09/13 05:06:08;;;;;;;106.20;33.88;;;17.10;99.90;;;17.50;100.00;99386.94;5022474;28;20050;-79
2023/09/13 05:08:34;;;;;;;109.65;33.90;;;17.10;99.90;;;17.52;100.00;99390.25;5034603;28;20488;-79
2023/09/13 05:11:02;;;;;;;98.78;32.08;;;17.10;99.90;;;17.49;100.00;99374.25;5045339;28;20045;-78
2023/09/13 05:13:27;;;;;;;103.68;33.58;;;17.10;99.90;;;17.55;100.00;99373.09;5021043;28;20125;-78
2023/09/13 05:15:53;;;;;;;119.05;33.70;;;17.10;99.90;;;17.57;100.00;99375.53;5028502;28;20076;-77
2023/09/13 05:18:19;;;;;;;108.40;30.42;;;17.10;99.90;;;17.64;100.00;99373.28;5039119;28;20370;-79
2023/09/13 05:20:44;;;;;;;105.97;33.13;;;17.20;99.90;;;17.66;100.00;99376.56;5041899;28;20769;-79
2023/09/13 05:23:10;;;;;;;110.28;33.38;;;17.20;99.90;;;17.69;100.00;99376.75;5037026;28;20041;-79
2023/09/13 05:25:44;;;;;;;113.13;32.13;;;17.30;99.90;;;17.74;100.00;99380.56;5034649;28;20439;-79
2023/09/13 05:28:12;;;;;;;94.38;32.58;;;17.30;99.90;;;17.74;100.00;99392.44;5029789;28;20059;-79
2023/09/13 05:30:37;;;;;;;85.63;29.75;;;17.30;99.90;;;17.77;100.00;99385.50;5017174;28;20409;-79
2023/09/13 05:33:04;;;;;;;91.07;31.48;;;;;;;17.83;100.00;99392.59;5020929;28;20056;-81
2023/09/13 05:35:31;;;;;;;108.88;33.47;;;17.30;99.90;;;17.80;100.00;99409.75;5016529;28;20038;-79
2023/09/13 05:37:58;;;;;;;109.70;33.53;;;17.30;99.90;;;17.84;100.00;99424.59;5024538;28;20033;-80
2023/09/13 05:40:26;;;;;;;116.30;32.00;;;17.40;99.90;;;17.86;100.00;99438.91;5016368;28;20045;-80
2023/09/13 05:42:52;;;;;;;94.13;30.00;;;17.40;99.90;;;17.88;100.00;99444.09;5034997;28;20030;-80
2023/09/13 05:45:18;;;;;;;93.68;31.38;;;17.40;99.90;;;17.89;100.00;99452.09;5017205;28;20060;-80
2023/09/13 05:47:43;;;;;;;103.80;30.95;;;17.50;99.90;;;17.96;100.00;99451.75;5040093;28;20037;-79
2023/09/13 05:50:09;;;;;;;95.97;30.45;;;17.50;99.90;;;18.00;100.00;99460.25;5034039;28;20033;-79
2023/09/13 05:52:39;;;;;;;82.68;29.58;;;17.50;99.90;;;18.07;100.00;99466.28;5034129;28;20029;-79
2023/09/13 05:55:04;;;;;;;98.35;31.70;;;17.60;99.90;;;18.15;100.00;99464.75;5033671;28;20550;-79
2023/09/13 05:57:30;;;;;;;106.53;32.95;;;17.70;99.90;;;18.18;100.00;99456.72;5034192;28;20108;-79
2023/09/13 05:59:56;;;;;;;88.43;30.33;;;17.70;99.90;;;18.23;100.00;99475.16;5019423;28;20040;-78
2023/09/13 06:02:22;;;;;;;99.07;30.70;;;17.70;99.90;;;18.21;100.00;99483.72;5019141;28;20369;-78
2023/09/13 06:04:47;;;;;;;89.72;31.83;;;17.80;99.90;;;18.23;100.00;99484.25;5021939;28;20175;-79
2023/09/13 06:07:13;;;;;;;108.30;31.40;;;17.80;99.90;;;18.11;100.00;99489.38;5033191;28;20067;-78
2023/09/13 06:09:39;;;;;;;86.47;31.70;;;17.80;99.90;;;18.17;100.00;99499.25;5016019;28;20473;-79
2023/09/13 06:12:05;;;;;;;78.50;29.33;;;17.80;99.90;;;18.20;100.00;99511.63;5033985;28;20044;-77
2023/09/13 06:14:31;;;;;;;70.35;28.20;;;17.80;99.90;;;18.19;100.00;99513.56;5033495;28;20055;-79
2023/09/13 06:16:58;;;;;;;66.25;26.85;;;17.90;99.90;;;18.19;100.00;99524.59;5026302;28;20036;-79
2023/09/13 06:19:23;;;;;;;68.53;25.42;;;17.90;99.90;;;18.30;100.00;99519.78;5028500;28;20033;-85
2023/09/13 06:21:49;;;;;;;56.75;24.02;;;17.90;99.90;;;18.28;100.00;99533.06;5044451;28;20029;-89
2023/09/13 06:24:15;;;;;;;52.05;22.55;;;18.00;99.90;;;18.32;100.00;99541.56;5011618;28;20041;-90
2023/09/13 06:26:41;;;;;;;38.63;19.38;;;18.00;99.90;;;18.08;100.00;99554.25;5018575;28;20481;-88
2023/09/13 06:29:07;;;;;;;38.35;19.20;;;18.00;99.90;;;17.96;100.00;99542.78;5026720;28;20044;-85
2023/09/13 06:31:33;;;;;;;33.75;18.23;;;17.90;99.90;;;18.05;100.00;99531.97;5039778;28;20030;-87
2023/09/13 06:33:59;;;;;;;29.50;16.83;;;17.80;99.90;;;17.84;100.00;99532.16;5034936;28;20041;-86
2023/09/13 06:36:25;;;;;;;29.10;18.17;;;17.80;99.90;;;18.12;100.00;99521.38;5035140;28;20029;-88
2023/09/13 06:38:51;;;;;;;26.83;17.92;;;17.90;99.90;;;18.17;100.00;99521.31;5036437;28;20048;-89
2023/09/13 06:41:16;;;;;;;24.73;16.27;;;18.00;99.90;;;17.93;100.00;99541.44;5046650;28;20064;-89
2023/09/13 06:43:44;;;;;;;24.88;17.10;;;;;;;18.07;100.00;99532.50;5032108;28;20049;-90
2023/09/13 06:46:10;;;;;;;26.40;17.02;;;17.90;99.90;;;18.12;100.00;99532.44;5021385;28;20045;-83
2023/09/13 06:48:36;;;;;;;26.90;19.15;;;17.90;99.90;;;18.20;100.00;99530.97;5035467;28;20056;-90
2023/09/13 06:51:03;;;;;;;27.90;18.45;;;;;;;18.21;100.00;99552.72;5035213;28;20040;-85
2023/09/13 06:53:29;;;;;;;27.25;18.80;;;;;;;18.46;100.00;99548.00;5036188;28;20029;-86
2023/09/13 06:55:56;;;;;;;25.98;18.80;;;;;;;18.54;100.00;99569.41;5032401;28;20091;-88
2023/09/13 06:58:22;;;;;;;25.83;18.80;;;18.10;99.90;;;18.49;100.00;99610.09;5037984;28;20396;-84
2023/09/13 07:00:48;;;;;;;25.90;20.15;;;18.40;99.90;;;18.78;100.00;99631.28;5033350;28;20021;-86
2023/09/13 07:03:14;;;;;;;29.73;19.98;;;18.60;99.90;;;18.73;100.00;99659.78;5015861;28;20551;-86
2023/09/13 07:05:39;;;;;;;26.42;19.80;;;18.70;99.90;;;18.85;100.00;99702.75;5015932;28;20049;-86
2023/09/13 07:08:05;;;;;;;26.88;21.23;;;18.70;99.90;;;18.76;100.00;99731.00;5039800;28;20076;-88
2023/09/13 07:10:31;;;;;;;26.02;20.75;;;18.70;99.90;;;18.68;100.00;99745.47;5032308;28;20040;-90
2023/09/13 07:12:57;;;;;;;23.88;20.73;;;18.70;99.90;;;18.35;100.00;99748.03;5026029;28;20029;-81
2023/09/13 07:15:25;;;;;;;26.48;21.38;;;18.60;99.90;;;18.51;100.00;99746.75;5034195;28;20077;-87
2023/09/13 07:17:51;;;;;;;26.05;21.10;;;18.60;99.90;;;18.86;100.00;99737.56;5043834;28;20090;-86
2023/09/13 07:20:17;;;;;;;22.40;19.20;;;18.70;99.90;;;18.72;100.00;99743.78;5041027;28;20037;-84
2023/09/13 07:22:43;;;;;;;21.85;18.27;;;18.70;99.90;;;19.01;100.00;99767.78;5021430;28;20098;-88
2023/09/13 07:25:08;;;;;;;19.83;17.40;;;18.80;99.90;;;19.00;100.00;99802.06;5033440;28;20063;-87
2023/09/13 07:27:34;;;;;;;18.05;16.10;;;18.80;99.90;;;18.92;100.00;99833.09;5038191;28;20025;-87
2023/09/13 07:30:02;;;;;;;18.42;15.20;;;18.80;99.90;;;18.62;100.00;99846.91;5032543;28;20440;-86
2023/09/13 07:32:27;;;;;;;18.73;15.65;;;18.70;99.90;;;18.78;100.00;99817.19;5032277;28;20040;-88
2023/09/13 07:34:53;;;;;;;18.85;15.70;;;18.80;99.90;;;18.62;100.00;99812.94;5039123;28;20037;-86
2023/09/13 07:37:19;;;;;;;19.35;16.80;;;18.80;99.90;;;18.67;100.00;99793.56;5032395;28;20030;-82
2023/09/13 07:39:45;;;;;;;20.63;16.90;;;18.70;99.90;;;18.90;100.00;99805.72;5032690;28;20118;-83
2023/09/13 07:42:11;;;;;;;19.52;16.20;;;18.90;99.90;;;18.69;100.00;99855.66;5014764;28;20091;-83
2023/09/13 07:44:37;;;;;;;19.48;17.13;;;18.80;99.90;;;18.83;100.00;99868.81;5032408;28;20439;-79
2023/09/13 07:47:03;;;;;;;18.02;16.10;;;18.80;99.90;;;18.92;100.00;99893.88;5032535;28;20042;-83
2023/09/13 07:49:29;;;;;;;21.33;17.60;;;18.90;99.90;;;18.99;100.00;99901.88;5031895;28;20036;-79
2023/09/13 07:51:54;;;;;;;17.48;15.35;;;18.90;99.90;;;19.01;100.00;99905.16;5031983;28;20608;-80
2023/09/13 07:54:20;;;;;;;19.60;15.25;;;18.90;99.90;;;19.10;100.00;99944.88;5032160;28;20485;-82
2023/09/13 07:56:46;;;;;;;17.90;15.10;;;18.80;99.90;;;19.15;100.00;99972.44;5032247;28;20037;-81
2023/09/13 07:59:15;;;;;;;18.15;15.63;;;18.90;99.90;;;19.27;100.00;99991.41;5031724;28;20037;-82
2023/09/13 08:01:42;;;;;;;18.48;15.63;;;;;;;19.37;100.00;99988.56;5032290;28;20095;-80
2023/09/13 08:04:08;;;;;;;18.33;16.42;;;;;;;19.82;100.00;99990.28;5015268;28;20038;-82
2023/09/13 08:06:34;;;;;;;13.77;11.80;;;;;;;19.88;100.00;100082.38;5031345;28;20136;-82
2023/09/13 08:09:00;;;;;;;12.60;9.80;;;;;;;20.09;100.00;100189.03;5031968;28;20125;-81
2023/09/13 08:11:26;;;;;;;12.13;10.10;;;;;;;20.09;100.00;100230.56;5032040;28;20029;-80
2023/09/13 08:13:52;;;;;;;10.60;9.50;;;;;;;20.05;100.00;100272.97;5033913;28;20124;-88
2023/09/13 08:16:19;;;;;;;13.32;10.27;;;;;;;19.99;100.00;100291.56;5024148;28;20079;-83
2023/09/13 08:18:45;;;;;;;11.57;8.93;;;;;;;19.89;100.00;100289.69;5035859;28;20087;-80
2023/09/13 08:21:11;;;;;;;11.40;8.77;;;;;;;20.12;100.00;100313.06;5035784;28;20460;-79
2023/09/13 08:23:37;;;;;;;9.38;8.30;;;;;;;20.39;100.00;100338.56;5035529;28;20033;-85
2023/09/13 08:26:04;;;;;;;10.25;8.00;;;;;;;20.60;100.00;100378.03;5035384;28;20451;-79
2023/09/13 08:28:30;;;;;;;8.88;6.95;;;;;;;20.67;100.00;100413.69;5035351;28;20041;-82
2023/09/13 08:30:56;;;;;;;8.75;7.28;;;;;;;20.86;100.00;100429.63;5035845;28;20033;-81
2023/09/13 08:33:22;;;;;;;7.20;6.28;;;;;;;20.54;100.00;100446.50;5035782;28;20037;-81
2023/09/13 08:35:48;;;;;;;7.60;5.55;;;;;;;20.44;100.00;100457.66;5017619;28;20160;-79
2023/09/13 08:38:14;;;;;;;5.68;4.97;;;;;;;21.11;100.00;100470.97;5017945;28;20087;-80
2023/09/13 08:40:44;;;;;;;6.57;5.30;;;;;;;21.29;100.00;100495.50;5017397;28;20072;-80
2023/09/13 08:43:12;;;;;;;8.07;5.35;;;;;;;21.64;100.00;100488.75;5015780;28;20120;-81
2023/09/13 08:45:39;;;;;;;7.15;4.55;;;;;;;21.79;100.00;100509.16;5035440;28;20044;-80
2023/09/13 08:48:09;;;;;;;;;;;;;;;21.71;100.00;100524.50;5035945;28;20033;-81
2023/09/13 08:50:37;;;;;;;6.13;4.53;;;;;;;22.36;100.00;100533.41;5035006;28;20171;-80
2023/09/13 08:53:05;;;;;;;5.82;4.40;;;;;;;22.39;100.00;100541.94;5039104;28;20045;-78
2023/09/13 08:55:33;;;;;;;6.75;4.38;;;;;;;22.50;100.00;100553.78;5023726;28;20038;-79
2023/09/13 08:58:00;;;;;;;5.68;4.22;;;;;;;22.60;100.00;100547.25;5027929;28;20447;-81
2023/09/13 09:00:29;;;;;;;6.35;4.25;;;;;;;22.75;100.00;100545.38;5034622;28;20116;-79
2023/09/13 09:02:58;;;;;;;4.80;4.07;;;;;;;23.22;100.00;100554.63;5017493;28;20124;-80
2023/09/13 09:05:27;;;;;;;5.28;4.10;;;;;;;23.62;100.00;100556.16;5034574;28;20080;-80
2023/09/13 09:07:54;;;;;;;6.78;4.35;;;;;;;23.66;100.00;100560.81;5024420;28;20037;-82
2023/09/13 09:10:20;;;;;;;6.38;4.03;;;;;;;23.51;100.00;100558.31;5017304;28;20045;-83
2023/09/13 09:12:50;;;;;;;5.07;3.92;;;;;;;23.60;100.00;100559.22;5034493;28;20456;-83
2023/09/13 09:15:19;;;;;;;6.25;4.25;;;;;;;23.50;100.00;100559.44;5034058;28;20034;-83
2023/09/13 09:17:48;;;;;;;5.00;4.32;;;;;;;23.44;100.00;100563.44;5017040;28;20099;-83
2023/09/13 09:20:15;;;;;;;6.35;4.53;;;;;;;23.82;100.00;100561.34;5000885;28;20464;-84
2023/09/13 09:22:41;;;;;;;7.78;4.90;;;;;;;24.15;100.00;100560.44;5034420;28;20030;-84
2023/09/13 09:25:13;;;;;;;5.07;4.40;;;;;;;23.84;100.00;100567.41;5020753;28;20144;-82
2023/09/13 09:27:40;;;;;;;6.70;4.53;;;;;;;23.66;100.00;100563.59;5034692;28;20299;-86
2023/09/13 09:30:07;;;;;;;5.18;4.53;;;;;;;23.36;100.00;100557.47;5034942;28;20042;-83
2023/09/13 09:32:37;;;;;;;5.70;4.25;;;;;;;22.95;100.00;100561.75;5034716;28;20041;-85
2023/09/13 09:35:06;;;;;;;4.40;4.00;;;;;;;22.78;100.00;100559.47;5016334;28;20108;-84
2023/09/13 09:37:33;;;;;;;5.40;4.50;;;;;;;22.44;100.00;100556.91;5034587;28;20051;-84
2023/09/13 09:40:00;;;;;;;6.90;5.28;;;;;;;21.48;100.00;100532.47;5034437;28;20087;-79
2023/09/13 09:42:29;;;;;;;6.78;5.65;;;;;;;20.88;100.00;100460.66;5034293;28;20053;-80
2023/09/13 09:44:55;;;;;;;6.82;5.95;;;;;;;20.82;100.00;100424.69;5026896;28;20039;-79
2023/09/13 09:47:21;;;;;;;7.53;6.05;;;18.90;99.90;;;20.22;100.00;100386.91;5016234;28;20034;-82
2023/09/13 09:49:47;;;;;;;9.00;6.57;;;20.60;99.90;;;20.06;100.00;100352.97;5008123;28;20040;-79
2023/09/13 09:52:15;;;;;;;8.63;7.30;;;20.10;99.90;;;20.04;100.00;100302.59;5034243;28;20148;-79
2023/09/13 09:54:51;;;;;;;7.68;6.88;;;20.00;99.90;;;20.22;100.00;100261.44;5016276;28;20052;-79
2023/09/13 09:57:21;;;;;;;6.82;5.63;;;20.00;99.90;;;20.24;100.00;100260.06;5033687;28;20493;-79
2023/09/13 09:59:48;;;;;;;5.07;4.45;;;20.20;99.90;;;20.02;100.00;100252.22;5034235;28;20045;-79
2023/09/13 10:02:14;;;;;;;8.02;4.68;;;20.10;99.90;;;19.77;100.00;100264.28;5016115;28;20038;-79
2023/09/13 10:04:50;;;;;;;8.20;6.30;;;20.10;99.90;;;19.34;100.00;100204.81;5015625;28;20037;-81
2023/09/13 10:07:16;;;;;;;7.97;6.28;;;19.70;99.90;;;19.16;100.00;100172.34;5033688;28;20111;-81
2023/09/13 10:09:44;;;;;;;9.18;7.00;;;19.50;99.90;;;19.05;100.00;100091.41;5033896;28;20029;-80
2023/09/13 10:12:12;;;;;;;5.38;4.07;;;19.20;99.90;;;18.57;100.00;100091.97;5033793;28;20065;-82
2023/09/13 10:14:44;;;;;;;5.82;4.15;;;18.90;99.90;;;18.39;100.00;100074.91;5026835;28;20120;-79
2023/09/13 10:17:11;;;;;;;6.22;5.03;;;18.70;99.90;;;18.23;100.00;99985.81;5031823;28;20038;-79